Terminal Aerodrome Forecast
Issued by NWS Missoula, MT

Home | Current Version | Previous Version | Text Only | Print | Product List | Glossary On
Versions: 1 2 3 4 5 6 7 8 9 10 11 12 13 14 15 16 17 18 19 20 21 22 23
179
FTUS45 KMSO 130520
TAFGPI
TAF
KGPI 130520Z 1306/1406 VRB04KT 1SM -RA BR OVC010
      TEMPO 1306/1308 1/2SM FG OVC007
     FM131300 19010KT 2SM -SNRA BR OVC015
     FM131700 20010KT 5SM -SNRA BR OVC015
     FM131900 21012G20KT P6SM VCSH SCT015 BKN040
     FM140100 20007KT P6SM BKN040=

USA.gov is the U.S. government's official web portal to all federal, state and local government web resources and services.